^^
Saratoga-Weather Station Historical Data
Daily Summary for November 15, 2020 Units:  Metric    English   Both
Daily Weekly Monthly Yearly Custom
  High: Low: Average:
Temperature: 16.7 °C 7.4 °C 11.4 °C
Dew Point: 12.5 °C 7 °C 9.7 °C
Humidity: 98% 70% 90%
Wind Speed: 28.8km/h 0km/h 3.1km/h
Wind Gust: 29km/h - -
Wind- - SSE
Pressure: 1014.9 hPa 1004.7 hPa -
Precipitation: 7.1 mm    
Historical Graphs
 
 
Tabular Data for November 15, 2020
Time Temperature Dew Point Pressure Wind Wind Speed Wind Gust Humidity Rainfall Rate (Hourly) solar
00:01 8.3 °C 7.9 °C 1014.9 hPa Calm     97% 0.0 mm 0 W/m2
00:06 8.3 °C 7.9 °C 1014.9 hPa Calm     97% 0.0 mm 0 W/m2
00:11 8.2 °C 7.8 °C 1014.9 hPa Calm     97% 0.0 mm 0 W/m2
00:16 8.2 °C 7.8 °C 1014.9 hPa Calm     97% 0.0 mm 0 W/m2
00:21 8.2 °C 7.8 °C 1014.9 hPa Calm     97% 0.0 mm 0 W/m2
00:26 8.1 °C 7.7 °C 1014.9 hPa Calm     97% 0.0 mm 0 W/m2
00:31 8.1 °C 7.7 °C 1014.9 hPa Calm     97% 0.0 mm 0 W/m2
00:36 8.1 °C 7.7 °C 1014.9 hPa Calm     97% 0.0 mm 0 W/m2
00:41 8 °C 7.6 °C 1014.9 hPa Calm     97% 0.0 mm 0 W/m2
00:46 8 °C 7.6 °C 1014.9 hPa Calm     97% 0.0 mm 0 W/m2
00:51 8 °C 7.6 °C 1014.9 hPa Calm     97% 0.0 mm 0 W/m2
00:56 8 °C 7.6 °C 1014.9 hPa Calm     97% 0.0 mm 0 W/m2
01:01 8.1 °C 7.7 °C 1014.9 hPa Calm     97% 0.0 mm 0 W/m2
01:06 8.2 °C 7.8 °C 1014.6 hPa Calm     97% 0.0 mm 0 W/m2
01:11 8.3 °C 7.9 °C 1014.6 hPa Calm     97% 0.0 mm 0 W/m2
01:16 8.2 °C 7.8 °C 1014.6 hPa Calm     97% 0.0 mm 0 W/m2
01:21 8.2 °C 7.8 °C 1014.6 hPa Calm     97% 0.0 mm 0 W/m2
01:26 8.1 °C 7.7 °C 1014.6 hPa Calm     97% 0.0 mm 0 W/m2
01:32 8.1 °C 7.7 °C 1014.6 hPa Calm     97% 0.0 mm 0 W/m2
01:37 8.1 °C 7.7 °C 1014.6 hPa Calm     97% 0.0 mm 0 W/m2
01:42 8 °C 7.6 °C 1014.6 hPa Calm     97% 0.0 mm 0 W/m2
01:47 8.2 °C 7.8 °C 1014.6 hPa Calm     97% 0.0 mm 0 W/m2
01:52 8.3 °C 7.9 °C 1014.6 hPa Calm     97% 0.0 mm 0 W/m2
01:57 8.3 °C 7.9 °C 1014.2 hPa Calm     97% 0.0 mm 0 W/m2
02:02 8.3 °C 7.9 °C 1014.2 hPa Calm     97% 0.0 mm 0 W/m2
02:07 8.3 °C 7.9 °C 1014.2 hPa Calm     97% 0.0 mm 0 W/m2
02:12 8.3 °C 7.9 °C 1014.2 hPa Calm     97% 0.0 mm 0 W/m2
02:17 8.3 °C 7.9 °C 1014.2 hPa Calm     97% 0.0 mm 0 W/m2
02:22 8.2 °C 7.8 °C 1014.2 hPa Calm     97% 0.0 mm 0 W/m2
02:27 8.2 °C 7.8 °C 1014.2 hPa Calm     97% 0.0 mm 0 W/m2
02:32 8.1 °C 7.7 °C 1014.2 hPa Calm     97% 0.0 mm 0 W/m2
02:37 8.1 °C 7.7 °C 1014.2 hPa Calm     97% 0.0 mm 0 W/m2
02:42 8.1 °C 7.7 °C 1013.9 hPa Calm     97% 0.0 mm 0 W/m2
02:47 8.1 °C 7.7 °C 1013.9 hPa Calm     97% 0.0 mm 0 W/m2
02:52 8 °C 7.6 °C 1013.9 hPa Calm     97% 0.0 mm 0 W/m2
02:57 7.9 °C 7.5 °C 1013.9 hPa Calm     97% 0.0 mm 0 W/m2
03:02 7.8 °C 7.4 °C 1013.9 hPa Calm     97% 0.0 mm 0 W/m2
03:07 7.8 °C 7.4 °C 1014.2 hPa Calm     97% 0.0 mm 0 W/m2
03:12 7.8 °C 7.4 °C 1013.9 hPa Calm     97% 0.0 mm 0 W/m2
03:17 7.7 °C 7.3 °C 1013.9 hPa Calm     97% 0.0 mm 0 W/m2
03:22 7.7 °C 7.3 °C 1013.9 hPa Calm     97% 0.0 mm 0 W/m2
03:27 7.8 °C 7.4 °C 1013.9 hPa Calm     97% 0.0 mm 0 W/m2
03:32 7.8 °C 7.4 °C 1013.5 hPa Calm     97% 0.0 mm 0 W/m2
03:37 7.8 °C 7.4 °C 1013.9 hPa Calm     97% 0.0 mm 0 W/m2
03:42 7.9 °C 7.5 °C 1013.9 hPa Calm     97% 0.0 mm 0 W/m2
03:47 7.9 °C 7.5 °C 1013.9 hPa Calm     97% 0.0 mm 0 W/m2
03:52 7.9 °C 7.5 °C 1013.9 hPa Calm     97% 0.0 mm 0 W/m2
03:57 7.8 °C 7.4 °C 1013.9 hPa Calm     97% 0.0 mm 0 W/m2
04:02 7.8 °C 7.4 °C 1013.9 hPa Calm     97% 0.0 mm 0 W/m2
04:07 7.8 °C 7.4 °C 1013.9 hPa Calm     97% 0.0 mm 0 W/m2
04:12 7.7 °C 7.3 °C 1013.9 hPa Calm     97% 0.0 mm 0 W/m2
04:17 7.6 °C 7.2 °C 1013.9 hPa Calm     97% 0.0 mm 0 W/m2
04:22 7.6 °C 7.2 °C 1013.9 hPa Calm     97% 0.2 mm 0 W/m2
04:27 7.7 °C 7.3 °C 1013.5 hPa ESE 3.2 km/h 4.8 km/h 97% 0.2 mm 0 W/m2
04:32 7.9 °C 7.5 °C 1013.5 hPa Calm     97% 0.2 mm 0 W/m2
04:37 7.9 °C 7.5 °C 1013.5 hPa Calm   1.6 km/h 97% 0.2 mm 0 W/m2
04:42 7.9 °C 7.5 °C 1013.5 hPa Calm     97% 0.2 mm 0 W/m2
04:47 7.8 °C 7.4 °C 1013.5 hPa Calm     97% 0.2 mm 0 W/m2
04:52 7.7 °C 7.3 °C 1013.5 hPa Calm     97% 0.2 mm 0 W/m2
04:57 7.6 °C 7.2 °C 1013.5 hPa SW 3.2 km/h 4.8 km/h 97% 0.2 mm 0 W/m2
05:02 7.6 °C 7.2 °C 1013.5 hPa Calm     97% 0.2 mm 0 W/m2
05:07 7.5 °C 7.1 °C 1013.5 hPa Calm   4.8 km/h 97% 0.2 mm 0 W/m2
05:12 7.5 °C 7.1 °C 1013.5 hPa Calm     97% 0.2 mm 0 W/m2
05:17 7.4 °C 7 °C 1013.5 hPa Calm     97% 0.0 mm 0 W/m2
05:22 7.4 °C 7 °C 1013.5 hPa Calm     97% 0.0 mm 0 W/m2
05:27 7.5 °C 7.1 °C 1013.5 hPa Calm     97% 0.0 mm 0 W/m2
05:32 7.6 °C 7.2 °C 1013.5 hPa Calm     97% 0.0 mm 0 W/m2
05:37 7.6 °C 7.2 °C 1013.5 hPa Calm     97% 0.0 mm 0 W/m2
05:42 7.6 °C 7.2 °C 1013.5 hPa Calm     97% 0.0 mm 0 W/m2
05:47 7.6 °C 7.2 °C 1013.5 hPa Calm     97% 0.0 mm 0 W/m2
05:52 7.6 °C 7.2 °C 1013.5 hPa Calm     97% 0.0 mm 0 W/m2
05:57 7.6 °C 7.2 °C 1013.2 hPa Calm     97% 0.0 mm 0 W/m2
06:02 7.5 °C 7.1 °C 1013.2 hPa Calm     97% 0.0 mm 0 W/m2
06:07 7.4 °C 7 °C 1013.2 hPa Calm     97% 0.0 mm 0 W/m2
06:13 7.4 °C 7 °C 1013.2 hPa Calm     97% 0.0 mm 0 W/m2
06:18 7.4 °C 7 °C 1013.2 hPa Calm     97% 0.0 mm 0 W/m2
06:23 7.4 °C 7 °C 1013.2 hPa Calm     97% 0.0 mm 0 W/m2
06:28 7.6 °C 7.2 °C 1013.2 hPa Calm     97% 0.0 mm 0 W/m2
06:33 7.6 °C 7.2 °C 1013.2 hPa Calm     97% 0.0 mm 0 W/m2
06:38 7.7 °C 7.3 °C 1013.2 hPa Calm     97% 0.0 mm 0 W/m2
06:43 7.7 °C 7.3 °C 1012.9 hPa Calm     97% 0.0 mm 0 W/m2
06:48 7.8 °C 7.4 °C 1012.9 hPa Calm     97% 0.0 mm 0 W/m2
06:53 7.8 °C 7.4 °C 1012.9 hPa Calm     97% 0.0 mm 0 W/m2
06:58 7.8 °C 7.4 °C 1012.9 hPa Calm     97% 0.0 mm 0 W/m2
07:03 7.8 °C 7.4 °C 1012.9 hPa Calm     97% 0.0 mm 0 W/m2
07:08 7.8 °C 7.4 °C 1012.9 hPa Calm     97% 0.0 mm 0 W/m2
07:13 7.8 °C 7.4 °C 1012.9 hPa Calm     97% 0.0 mm 0 W/m2
07:18 7.9 °C 7.6 °C 1012.9 hPa Calm     98% 0.0 mm 0 W/m2
07:23 8 °C 7.7 °C 1012.5 hPa Calm     98% 0.0 mm 0 W/m2
07:28 8.1 °C 7.8 °C 1012.5 hPa Calm     98% 0.0 mm 0 W/m2
07:33 8.1 °C 7.8 °C 1012.5 hPa Calm     98% 0.0 mm 0 W/m2
07:38 8.2 °C 7.9 °C 1012.5 hPa Calm     98% 0.0 mm 0 W/m2
07:43 8.2 °C 7.9 °C 1012.5 hPa WSW 3.2 km/h 3.2 km/h 98% 0.0 mm 0 W/m2
07:48 8.2 °C 7.9 °C 1012.5 hPa WSW 1.4 km/h 1.6 km/h 98% 0.0 mm 0 W/m2
07:53 8.3 °C 8 °C 1012.5 hPa Calm     98% 0.0 mm 0 W/m2
07:58 8.3 °C 8 °C 1012.5 hPa Calm     98% 0.0 mm 5 W/m2
08:03 8.3 °C 8 °C 1012.5 hPa Calm     98% 0.0 mm 7 W/m2
08:08 8.3 °C 8 °C 1012.5 hPa WSW 1.4 km/h 3.2 km/h 98% 0.0 mm 7 W/m2
08:13 8.3 °C 8 °C 1012.2 hPa Calm     98% 0.0 mm 9 W/m2
08:18 8.2 °C 7.9 °C 1012.2 hPa Calm   3.2 km/h 98% 0.0 mm 11 W/m2
08:23 8.2 °C 7.8 °C 1012.2 hPa Calm     97% 0.0 mm 12 W/m2
08:28 8.2 °C 7.8 °C 1011.9 hPa Calm   1.6 km/h 97% 0.0 mm 14 W/m2
08:33 8.2 °C 7.9 °C 1011.9 hPa Calm   1.6 km/h 98% 0.0 mm 18 W/m2
08:38 8.3 °C 8 °C 1011.9 hPa Calm     98% 0.0 mm 23 W/m2
08:43 8.3 °C 8 °C 1011.9 hPa Calm     98% 0.0 mm 28 W/m2
08:48 8.3 °C 8 °C 1011.9 hPa Calm   1.6 km/h 98% 0.0 mm 33 W/m2
08:53 8.4 °C 8.1 °C 1011.5 hPa WSW 1.4 km/h 1.6 km/h 98% 0.0 mm 32 W/m2
08:58 8.6 °C 8.3 °C 1011.5 hPa Calm     98% 0.0 mm 30 W/m2
09:03 8.7 °C 8.4 °C 1011.5 hPa Calm   1.6 km/h 98% 0.0 mm 30 W/m2
09:08 8.6 °C 8.3 °C 1011.2 hPa Calm   3.2 km/h 98% 0.0 mm 37 W/m2
09:13 8.7 °C 8.4 °C 1011.2 hPa Calm     98% 0.0 mm 47 W/m2
09:18 8.9 °C 8.6 °C 1011.2 hPa NNE 1.4 km/h 4.8 km/h 98% 0.0 mm 44 W/m2
09:23 9.3 °C 9 °C 1011.2 hPa Calm   3.2 km/h 98% 0.0 mm 33 W/m2
09:28 9.3 °C 9 °C 1011.5 hPa Calm   3.2 km/h 98% 0.0 mm 30 W/m2
09:33 9.5 °C 9.2 °C 1011.2 hPa NE 9.7 km/h 11.3 km/h 98% 0.0 mm 35 W/m2
09:38 10 °C 9.7 °C 1011.2 hPa East 6.4 km/h 17.7 km/h 98% 0.0 mm 32 W/m2
09:43 10.3 °C 10 °C 1011.2 hPa NE 3.2 km/h 9.7 km/h 98% 0.0 mm 32 W/m2
09:48 10.4 °C 10.1 °C 1011.2 hPa NE 1.4 km/h 17.7 km/h 98% 0.0 mm 32 W/m2
09:53 10.4 °C 10.1 °C 1011.2 hPa East 1.4 km/h 9.7 km/h 98% 0.0 mm 35 W/m2
09:58 10.7 °C 10.4 °C 1011.2 hPa ENE 3.2 km/h 6.4 km/h 98% 0.0 mm 35 W/m2
10:03 10.8 °C 10.5 °C 1011.2 hPa Calm   3.2 km/h 98% 0.0 mm 40 W/m2
10:08 10.9 °C 10.6 °C 1011.2 hPa ENE 3.2 km/h 4.8 km/h 98% 0.0 mm 47 W/m2
10:13 11.1 °C 10.8 °C 1010.8 hPa NNE 1.4 km/h 4.8 km/h 98% 0.0 mm 58 W/m2
10:18 11.2 °C 10.9 °C 1010.8 hPa NE 1.4 km/h 4.8 km/h 98% 0.0 mm 67 W/m2
10:23 11.3 °C 11 °C 1010.8 hPa WNW 3.2 km/h 4.8 km/h 98% 0.0 mm 63 W/m2
10:28 11.4 °C 10.9 °C 1010.8 hPa Calm   1.6 km/h 97% 0.0 mm 62 W/m2
10:33 11.6 °C 11.1 °C 1011.2 hPa Calm   4.8 km/h 97% 0.0 mm 58 W/m2
10:38 11.6 °C 11.1 °C 1010.8 hPa NNW 1.4 km/h 4.8 km/h 97% 0.0 mm 62 W/m2
10:43 11.6 °C 11 °C 1010.8 hPa East 1.4 km/h 3.2 km/h 96% 0.0 mm 76 W/m2
10:48 11.7 °C 11.1 °C 1010.8 hPa Calm   4.8 km/h 96% 0.0 mm 120 W/m2
10:53 12.1 °C 11.5 °C 1010.8 hPa ENE 4.7 km/h 6.4 km/h 96% 0.0 mm 139 W/m2
10:58 12.4 °C 11.6 °C 1010.8 hPa NE 1.4 km/h 4.8 km/h 95% 0.0 mm 116 W/m2
11:03 12.8 °C 11.7 °C 1010.8 hPa ESE 3.2 km/h 4.8 km/h 93% 0.0 mm 116 W/m2
11:08 13.1 °C 11.8 °C 1010.8 hPa East 3.2 km/h 4.8 km/h 92% 0.0 mm 141 W/m2
11:13 13.2 °C 11.6 °C 1010.5 hPa ENE 3.2 km/h 6.4 km/h 90% 0.0 mm 105 W/m2
11:18 13.4 °C 11.6 °C 1010.2 hPa ENE 4.7 km/h 11.3 km/h 89% 0.0 mm 97 W/m2
11:23 13.6 °C 11.6 °C 1010.2 hPa East 4.7 km/h 4.8 km/h 88% 0.0 mm 91 W/m2
11:28 13.8 °C 11.7 °C 1010.2 hPa NE 6.4 km/h 12.9 km/h 87% 0.0 mm 95 W/m2
11:33 13.9 °C 11.6 °C 1010.2 hPa WNW 3.2 km/h 4.8 km/h 86% 0.0 mm 130 W/m2
11:38 14.1 °C 11.6 °C 1009.8 hPa ESE 1.4 km/h 16.1 km/h 85% 0.0 mm 142 W/m2
11:43 14.4 °C 11.7 °C 1009.5 hPa ESE 6.4 km/h 9.7 km/h 84% 0.0 mm 123 W/m2
11:48 14.6 °C 11.6 °C 1009.5 hPa ENE 3.2 km/h 8 km/h 82% 0.0 mm 120 W/m2
11:53 14.8 °C 11.6 °C 1009.5 hPa NE 9.7 km/h 14.5 km/h 81% 0.0 mm 125 W/m2
11:58 14.8 °C 11.4 °C 1009.5 hPa SE 7.9 km/h 17.7 km/h 80% 0.0 mm 153 W/m2
12:03 14.9 °C 11.5 °C 1009.1 hPa East 4.7 km/h 14.5 km/h 80% 0.0 mm 144 W/m2
12:08 14.9 °C 11.5 °C 1009.1 hPa East 4.7 km/h 17.7 km/h 80% 0.0 mm 121 W/m2
12:13 14.9 °C 11.5 °C 1008.8 hPa ENE 14.3 km/h 14.5 km/h 80% 0.0 mm 121 W/m2
12:18 15 °C 11.6 °C 1008.8 hPa SE 4.7 km/h 16.1 km/h 80% 0.0 mm 144 W/m2
12:23 15.1 °C 11.7 °C 1008.5 hPa East 7.9 km/h 17.7 km/h 80% 0.0 mm 183 W/m2
12:28 15.1 °C 11.7 °C 1008.5 hPa East 9.7 km/h 19.3 km/h 80% 0.0 mm 113 W/m2
12:33 15.2 °C 11.6 °C 1008.5 hPa NE 7.9 km/h 19.3 km/h 79% 0.0 mm 79 W/m2
12:38 15.3 °C 11.5 °C 1008.5 hPa ENE 3.2 km/h 16.1 km/h 78% 0.0 mm 86 W/m2
12:43 15.4 °C 11.6 °C 1008.1 hPa ESE 4.7 km/h 12.9 km/h 78% 0.0 mm 69 W/m2
12:48 15.5 °C 11.7 °C 1007.8 hPa ENE 3.2 km/h 16.1 km/h 78% 0.0 mm 95 W/m2
12:53 15.6 °C 11.6 °C 1007.8 hPa SSE 1.4 km/h 24.1 km/h 77% 0.0 mm 118 W/m2
12:58 15.6 °C 11.6 °C 1007.8 hPa ENE 3.2 km/h 22.5 km/h 77% 0.0 mm 130 W/m2
13:03 15.7 °C 11.7 °C 1007.5 hPa ESE 3.2 km/h 24.1 km/h 77% 0.0 mm 127 W/m2
13:08 15.8 °C 11.8 °C 1007.5 hPa ESE 3.2 km/h 9.7 km/h 77% 0.0 mm 132 W/m2
13:13 15.8 °C 11.8 °C 1007.5 hPa East 1.4 km/h 12.9 km/h 77% 0.0 mm 139 W/m2
13:18 15.9 °C 11.9 °C 1007.5 hPa East 6.4 km/h 11.3 km/h 77% 0.0 mm 137 W/m2
13:23 15.9 °C 11.7 °C 1007.5 hPa East 4.7 km/h 16.1 km/h 76% 0.0 mm 132 W/m2
13:28 15.9 °C 11.7 °C 1007.1 hPa East 4.7 km/h 16.1 km/h 76% 0.0 mm 130 W/m2
13:33 15.9 °C 11.7 °C 1007.1 hPa ESE 11.1 km/h 17.7 km/h 76% 0.0 mm 130 W/m2
13:38 15.9 °C 11.5 °C 1007.1 hPa East 4.7 km/h 12.9 km/h 75% 0.0 mm 141 W/m2
13:43 16 °C 11.8 °C 1007.1 hPa East 3.2 km/h 17.7 km/h 76% 0.0 mm 144 W/m2
13:48 16.1 °C 11.7 °C 1007.1 hPa ESE 6.4 km/h 11.3 km/h 75% 0.0 mm 128 W/m2
13:53 16.1 °C 11.7 °C 1006.8 hPa East 9.7 km/h 12.9 km/h 75% 0.0 mm 118 W/m2
13:58 16.1 °C 11.7 °C 1006.8 hPa NE 6.4 km/h 12.9 km/h 75% 0.0 mm 121 W/m2
14:03 16.1 °C 11.7 °C 1006.4 hPa ENE 6.4 km/h 19.3 km/h 75% 0.0 mm 113 W/m2
14:08 16.1 °C 11.7 °C 1006.4 hPa East 6.4 km/h 11.3 km/h 75% 0.0 mm 98 W/m2
14:14 16.1 °C 11.7 °C 1006.4 hPa ENE 4.7 km/h 19.3 km/h 75% 0.0 mm 98 W/m2
14:19 16.1 °C 11.7 °C 1006.4 hPa NE 3.2 km/h 11.3 km/h 75% 0.0 mm 90 W/m2
14:24 16.1 °C 11.9 °C 1006.4 hPa ENE 1.4 km/h 19.3 km/h 76% 0.0 mm 72 W/m2
14:29 16.1 °C 11.9 °C 1006.1 hPa East 3.2 km/h 12.9 km/h 76% 0.0 mm 65 W/m2
14:34 16 °C 11.8 °C 1006.1 hPa NE 3.2 km/h 8 km/h 76% 0.0 mm 60 W/m2
14:39 16 °C 12 °C 1006.1 hPa SE 7.9 km/h 8 km/h 77% 0.0 mm 54 W/m2
14:44 15.9 °C 11.7 °C 1006.1 hPa East 4.7 km/h 4.8 km/h 76% 0.0 mm 49 W/m2
14:49 15.9 °C 11.7 °C 1006.1 hPa ENE 3.2 km/h 6.4 km/h 76% 0.0 mm 40 W/m2
14:54 15.9 °C 11.7 °C 1006.1 hPa Calm   1.6 km/h 76% 0.0 mm 35 W/m2
14:59 15.8 °C 11.8 °C 1006.1 hPa North 1.4 km/h 3.2 km/h 77% 0.0 mm 35 W/m2
15:04 15.7 °C 11.7 °C 1006.1 hPa Calm   3.2 km/h 77% 0.0 mm 28 W/m2
15:09 15.6 °C 11.8 °C 1006.1 hPa ENE 1.4 km/h 9.7 km/h 78% 0.0 mm 37 W/m2
15:14 15.5 °C 11.5 °C 1006.1 hPa ESE 1.4 km/h 3.2 km/h 77% 0.0 mm 35 W/m2
15:19 15.6 °C 11.4 °C 1006.1 hPa North 1.4 km/h 6.4 km/h 76% 0.0 mm 32 W/m2
15:24 15.8 °C 11.4 °C 1005.8 hPa East 3.2 km/h 6.4 km/h 75% 0.0 mm 37 W/m2
15:29 16 °C 11.2 °C 1006.1 hPa NNE 4.7 km/h 4.8 km/h 73% 0.0 mm 30 W/m2
15:34 16.2 °C 11.1 °C 1005.8 hPa ENE 7.9 km/h 8 km/h 72% 0.0 mm 19 W/m2
15:39 16.4 °C 11.1 °C 1006.1 hPa ENE 6.4 km/h 9.7 km/h 71% 0.0 mm 18 W/m2
15:44 16.5 °C 11 °C 1006.1 hPa NE 4.7 km/h 12.9 km/h 70% 0.0 mm 12 W/m2
15:49 16.7 °C 11.2 °C 1005.8 hPa NNE 6.4 km/h 6.4 km/h 70% 0.0 mm 12 W/m2
15:54 16.7 °C 11.2 °C 1005.8 hPa NNE 1.4 km/h 8 km/h 70% 0.0 mm 11 W/m2
15:59 16.7 °C 11.2 °C 1005.8 hPa WNW 4.7 km/h 12.9 km/h 70% 0.0 mm 7 W/m2
16:04 16.6 °C 11.3 °C 1006.1 hPa East 1.4 km/h 6.4 km/h 71% 0.0 mm 7 W/m2
16:09 16.6 °C 11.1 °C 1005.8 hPa North 4.7 km/h 8 km/h 70% 0.0 mm 5 W/m2
16:14 16.6 °C 11.3 °C 1005.8 hPa NW 4.7 km/h 4.8 km/h 71% 0.0 mm 5 W/m2
16:19 16.7 °C 11.2 °C 1006.1 hPa NNE 3.2 km/h 4.8 km/h 70% 0.0 mm 0 W/m2
16:24 16.6 °C 11.3 °C 1006.1 hPa NNE 4.7 km/h 8 km/h 71% 0.0 mm 0 W/m2
16:29 16.6 °C 11.5 °C 1006.1 hPa NNE 3.2 km/h 6.4 km/h 72% 0.0 mm 0 W/m2
16:34 16.3 °C 11.7 °C 1006.1 hPa NE 1.4 km/h 11.3 km/h 74% 0.2 mm 0 W/m2
16:39 16.1 °C 11.9 °C 1006.1 hPa NNW 4.7 km/h 6.4 km/h 76% 0.2 mm 0 W/m2
16:44 15.7 °C 11.9 °C 1005.8 hPa Calm   14.5 km/h 78% 0.5 mm 0 W/m2
16:49 15.3 °C 12.1 °C 1005.8 hPa NE 4.7 km/h 9.7 km/h 81% 0.8 mm 0 W/m2
16:54 15.1 °C 12 °C 1005.8 hPa WSW 1.4 km/h 14.5 km/h 82% 1.0 mm 0 W/m2
16:59 14.7 °C 12 °C 1005.8 hPa NNE 6.4 km/h 8 km/h 84% 1.5 mm 0 W/m2
17:04 14.5 °C 12.2 °C 1005.8 hPa Calm   4.8 km/h 86% 1.5 mm 0 W/m2
17:09 14.3 °C 12 °C 1005.8 hPa ENE 4.7 km/h 6.4 km/h 86% 1.5 mm 0 W/m2
17:14 14.2 °C 12.1 °C 1005.8 hPa NE 3.2 km/h 4.8 km/h 87% 1.8 mm 0 W/m2
17:19 14.1 °C 12.1 °C 1005.8 hPa ENE 3.2 km/h 6.4 km/h 88% 1.8 mm 0 W/m2
17:24 14 °C 12 °C 1005.4 hPa NE 3.2 km/h 6.4 km/h 88% 1.8 mm 0 W/m2
17:29 14 °C 12.2 °C 1005.4 hPa East 4.7 km/h 4.8 km/h 89% 1.8 mm 0 W/m2
17:34 13.9 °C 12.1 °C 1005.4 hPa ENE 3.2 km/h 6.4 km/h 89% 2.0 mm 0 W/m2
17:39 13.9 °C 12.3 °C 1005.1 hPa East 1.4 km/h 16.1 km/h 90% 2.3 mm 0 W/m2
17:44 13.8 °C 12.2 °C 1005.1 hPa ENE 6.4 km/h 14.5 km/h 90% 2.0 mm 0 W/m2
17:49 13.8 °C 12.2 °C 1005.1 hPa Calm   16.1 km/h 90% 2.3 mm 0 W/m2
17:54 13.8 °C 12.4 °C 1005.1 hPa ENE 3.2 km/h 12.9 km/h 91% 2.0 mm 0 W/m2
17:59 13.7 °C 12.3 °C 1005.1 hPa East 9.7 km/h 16.1 km/h 91% 1.8 mm 0 W/m2
18:04 13.7 °C 12.3 °C 1005.1 hPa NE 3.2 km/h 9.7 km/h 91% 1.5 mm 0 W/m2
18:09 13.7 °C 12.3 °C 1005.4 hPa NNW 3.2 km/h 8 km/h 91% 2.0 mm 0 W/m2
18:14 13.8 °C 12.4 °C 1005.4 hPa East 4.7 km/h 12.9 km/h 91% 2.0 mm 0 W/m2
18:19 13.8 °C 12.4 °C 1004.7 hPa NW 6.4 km/h 8 km/h 91% 2.3 mm 0 W/m2
18:24 13.8 °C 12.4 °C 1005.1 hPa WSW 1.4 km/h 12.9 km/h 91% 2.3 mm 0 W/m2
18:29 13.9 °C 12.5 °C 1005.1 hPa NNE 1.4 km/h 11.3 km/h 91% 2.0 mm 0 W/m2
18:34 13.9 °C 12.5 °C 1005.1 hPa NW 1.4 km/h 12.9 km/h 91% 1.8 mm 0 W/m2
18:39 13.9 °C 12.3 °C 1005.1 hPa SE 4.7 km/h 16.1 km/h 90% 1.5 mm 0 W/m2
18:44 13.9 °C 12.3 °C 1005.4 hPa NNW 1.4 km/h 8 km/h 90% 1.5 mm 0 W/m2
18:49 13.9 °C 12.3 °C 1005.4 hPa West 11.1 km/h 17.7 km/h 90% 1.0 mm 0 W/m2
18:54 14 °C 12.4 °C 1005.1 hPa NE 3.2 km/h 8 km/h 90% 1.0 mm 0 W/m2
18:59 14 °C 12.2 °C 1005.1 hPa NE 6.4 km/h 8 km/h 89% 0.8 mm 0 W/m2
19:04 14 °C 12.4 °C 1005.4 hPa ENE 14.3 km/h 16.1 km/h 90% 0.8 mm 0 W/m2
19:09 14 °C 12.2 °C 1005.4 hPa NW 3.2 km/h 19.3 km/h 89% 0.5 mm 0 W/m2
19:14 14.1 °C 12.3 °C 1005.8 hPa NE 3.2 km/h 16.1 km/h 89% 0.2 mm 0 W/m2
19:19 14.1 °C 12.3 °C 1005.8 hPa NNE 3.2 km/h 6.4 km/h 89% 0.0 mm 0 W/m2
19:24 14.1 °C 12.1 °C 1006.1 hPa West 11.1 km/h 17.7 km/h 88% 0.2 mm 0 W/m2
19:29 13.9 °C 12.1 °C 1006.4 hPa WSW 6.4 km/h 17.7 km/h 89% 1.3 mm 0 W/m2
19:34 13.3 °C 11.5 °C 1006.4 hPa West 6.4 km/h 20.9 km/h 89% 2.5 mm 0 W/m2
19:39 13 °C 11.2 °C 1006.1 hPa NW 6.4 km/h 17.7 km/h 89% 2.8 mm 0 W/m2
19:44 12.7 °C 10.9 °C 1006.1 hPa NE 4.7 km/h 17.7 km/h 89% 2.8 mm 0 W/m2
19:49 12.5 °C 10.7 °C 1006.4 hPa West 4.7 km/h 25.7 km/h 89% 3.0 mm 0 W/m2
19:54 12.3 °C 10.4 °C 1006.8 hPa West 13 km/h 29 km/h 88% 3.0 mm 0 W/m2
19:59 12.3 °C 10.2 °C 1006.4 hPa WNW 11.1 km/h 19.3 km/h 87% 3.0 mm 0 W/m2
20:04 12.2 °C 10.1 °C 1006.1 hPa NW 13 km/h 29 km/h 87% 3.0 mm 0 W/m2
20:09 12.1 °C 10 °C 1006.1 hPa West 3.2 km/h 9.7 km/h 87% 3.0 mm 0 W/m2
20:15 12 °C 10.1 °C 1006.1 hPa WNW 6.4 km/h 14.5 km/h 88% 3.0 mm 0 W/m2
20:20 11.9 °C 10 °C 1006.1 hPa North 1.4 km/h 4.8 km/h 88% 3.0 mm 0 W/m2
20:25 11.9 °C 10.1 °C 1006.1 hPa NW 4.7 km/h 11.3 km/h 89% 2.8 mm 0 W/m2
20:30 11.9 °C 10.3 °C 1006.1 hPa SE 3.2 km/h 3.2 km/h 90% 1.8 mm 0 W/m2
20:35 11.8 °C 10.2 °C 1006.1 hPa West 3.2 km/h 6.4 km/h 90% 0.5 mm 0 W/m2
20:40 11.8 °C 10.2 °C 1006.4 hPa WNW 1.4 km/h 4.8 km/h 90% 0.2 mm 0 W/m2
20:45 11.8 °C 10.2 °C 1006.4 hPa West 4.7 km/h 6.4 km/h 90% 0.2 mm 0 W/m2
20:50 11.8 °C 10.4 °C 1006.4 hPa WNW 1.4 km/h 6.4 km/h 91% 0.0 mm 0 W/m2
20:55 11.8 °C 10.4 °C 1006.4 hPa NNW 4.7 km/h 9.7 km/h 91% 0.0 mm 0 W/m2
21:00 11.8 °C 10.4 °C 1006.4 hPa Calm   3.2 km/h 91% 0.0 mm 0 W/m2
21:05 11.8 °C 10.4 °C 1006.4 hPa Calm   4.8 km/h 91% 0.0 mm 0 W/m2
21:10 11.8 °C 10.4 °C 1006.4 hPa WSW 9.7 km/h 9.7 km/h 91% 0.0 mm 0 W/m2
21:15 11.8 °C 10.4 °C 1006.4 hPa WNW 1.4 km/h 9.7 km/h 91% 0.0 mm 0 W/m2
21:20 11.8 °C 10.4 °C 1006.4 hPa West 1.4 km/h 3.2 km/h 91% 0.0 mm 0 W/m2
21:25 11.8 °C 10.4 °C 1006.8 hPa NNW 3.2 km/h 9.7 km/h 91% 0.0 mm 0 W/m2
21:30 11.8 °C 10.4 °C 1006.8 hPa WNW 3.2 km/h 4.8 km/h 91% 0.0 mm 0 W/m2
21:35 11.8 °C 10.4 °C 1006.8 hPa WNW 4.7 km/h 8 km/h 91% 0.0 mm 0 W/m2
21:40 11.8 °C 10.4 °C 1006.8 hPa NW 1.4 km/h 6.4 km/h 91% 0.0 mm 0 W/m2
21:45 11.9 °C 10.5 °C 1006.8 hPa Calm   6.4 km/h 91% 0.0 mm 0 W/m2
21:50 11.9 °C 10.5 °C 1007.1 hPa Calm   4.8 km/h 91% 0.0 mm 0 W/m2
21:55 11.9 °C 10.5 °C 1006.8 hPa NW 1.4 km/h 1.6 km/h 91% 0.0 mm 0 W/m2
22:00 11.9 °C 10.5 °C 1006.8 hPa North 4.7 km/h 8 km/h 91% 0.0 mm 0 W/m2
22:05 11.9 °C 10.5 °C 1006.8 hPa West 1.4 km/h 4.8 km/h 91% 0.0 mm 0 W/m2
22:10 11.9 °C 10.3 °C 1007.1 hPa NW 6.4 km/h 8 km/h 90% 0.0 mm 0 W/m2
22:15 11.8 °C 10.2 °C 1007.1 hPa NW 6.4 km/h 9.7 km/h 90% 0.0 mm 0 W/m2
22:20 11.8 °C 9.9 °C 1007.5 hPa West 9.7 km/h 20.9 km/h 88% 0.0 mm 0 W/m2
22:25 11.8 °C 9.7 °C 1007.5 hPa West 11.1 km/h 19.3 km/h 87% 0.0 mm 0 W/m2
22:30 11.8 °C 9.5 °C 1007.5 hPa WNW 4.7 km/h 14.5 km/h 86% 0.0 mm 0 W/m2
22:35 11.7 °C 9.4 °C 1007.5 hPa West 13 km/h 12.9 km/h 86% 0.0 mm 0 W/m2
22:40 11.7 °C 9.4 °C 1007.5 hPa West 17.7 km/h 19.3 km/h 86% 0.0 mm 0 W/m2
22:45 11.6 °C 9.2 °C 1007.5 hPa NW 6.4 km/h 14.5 km/h 85% 0.0 mm 0 W/m2
22:50 11.5 °C 9.1 °C 1007.8 hPa WSW 13 km/h 24.1 km/h 85% 0.0 mm 0 W/m2
22:55 11.5 °C 8.9 °C 1007.8 hPa West 14.3 km/h 17.7 km/h 84% 0.0 mm 0 W/m2
23:00 11.4 °C 8.6 °C 1007.8 hPa WNW 14.3 km/h 25.7 km/h 83% 0.0 mm 0 W/m2
23:05 11.4 °C 8.6 °C 1007.8 hPa WNW 14.3 km/h 24.1 km/h 83% 0.0 mm 0 W/m2
23:10 11.3 °C 8.5 °C 1007.8 hPa WNW 28.8 km/h 29 km/h 83% 0.0 mm 0 W/m2
23:15 11.3 °C 8.3 °C 1007.8 hPa West 13 km/h 12.9 km/h 82% 0.0 mm 0 W/m2
23:20 11.2 °C 8.4 °C 1007.8 hPa NW 6.4 km/h 29 km/h 83% 0.0 mm 0 W/m2
23:25 11.1 °C 8.3 °C 1008.1 hPa NW 7.9 km/h 16.1 km/h 83% 0.0 mm 0 W/m2
23:30 11 °C 8.2 °C 1008.1 hPa West 17.7 km/h 17.7 km/h 83% 0.0 mm 0 W/m2
23:35 10.9 °C 8.1 °C 1008.5 hPa West 9.7 km/h 17.7 km/h 83% 0.0 mm 0 W/m2
23:40 10.9 °C 8.1 °C 1008.5 hPa WNW 6.4 km/h 14.5 km/h 83% 0.0 mm 0 W/m2
23:45 10.9 °C 8.1 °C 1008.5 hPa West 11.1 km/h 24.1 km/h 83% 0.0 mm 0 W/m2
23:50 10.9 °C 8.1 °C 1008.5 hPa West 6.4 km/h 20.9 km/h 83% 0.0 mm 0 W/m2
23:55 10.8 °C 8.2 °C 1008.5 hPa WSW 11.1 km/h 24.1 km/h 84% 0.0 mm 0 W/m2
Juneau County Weather
Compliments of Weather Underground - 4 mb